Terminal Aerodrome Forecast
Issued by NWS

Current Version | Previous Version | Graphics & Text | Print | Product List | Glossary On
Versions: 1 2 3 4 5 6 7 8 9 10 11 12 13 14 15 16 17 18 19 20 21 22 23 24
000
FTUS41 KPBZ 150547
TAFHLG
TAF
KHLG 150547Z 1506/1606 21011KT 6SM -DZ BR BKN007 WS020/23040KT
     FM152100 24008KT 3SM -RA OVC008
     FM160000 24011KT 2SM RA OVC006=

USA.gov is the U.S. government's official web portal to all federal, state and local government web resources and services.